Time;durP1;ratioP1;P1;durP2;ratioP2;P2;SDS_P1;SDS_P2;PMS_P1;PMS_P2;Temp;Humidity;BMP_temperature;BMP_pressure;BME280_temperature;BME280_humidity;BME280_pressure;Samples;Min_cycle;Max_cycle;Signal;HPM_P1;HPM_P2
2023/08/23 00:00:23;1130549.00;3.77;1965.14;0.00;0.00;0.62;;;;;27.10;1.00;;;;;;2278231;61;1419;-87
2023/08/23 00:02:53;217104.00;0.72;375.36;0.00;0.00;0.62;;;;;27.10;1.60;;;;;;2304966;40;3604;-89
2023/08/23 00:05:21;320880.00;1.07;553.81;81158.00;0.27;141.04;;;;;27.00;1.00;;;;;;2276209;61;1321;-90
2023/08/23 00:10:21;1231973.00;4.11;2148.14;0.00;0.00;0.62;;;;;27.10;1.50;;;;;;2285418;56;3588;-89
2023/08/23 00:12:53;711737.00;2.37;1227.60;156078.00;0.52;270.28;;;;;27.10;1.00;;;;;;2276406;61;1858;-89
2023/08/23 00:17:48;1044850.00;3.48;1812.07;0.00;0.00;0.62;;;;;27.10;1.00;;;;;;2295735;40;3636;-89
2023/08/23 00:22:44;1396242.00;4.65;2449.36;49070.00;0.16;85.58;;;;;26.90;1.00;;;;;;1581649;40;3460;-89
2023/08/23 00:32:51;722377.00;2.41;1246.06;0.00;0.00;0.62;;;;;26.80;1.00;;;;;;2277916;61;1399;-88
2023/08/23 00:35:18;186974.00;0.62;323.50;0.00;0.00;0.62;;;;;26.80;1.00;;;;;;2276245;61;1395;-88
2023/08/23 00:40:20;927388.00;3.09;1604.27;65450.00;0.22;113.90;;;;;26.80;1.00;;;;;;2278098;61;1949;-88
2023/08/23 00:42:48;587482.00;1.96;1012.61;139458.00;0.46;241.64;;;;;26.80;1.00;;;;;;2276352;61;1128;-89
2023/08/23 00:47:45;794656.00;2.65;1371.81;70517.00;0.24;122.65;;;;;26.20;2.60;;;;;;2278898;61;1424;-89
2023/08/23 00:52:45;1352760.00;4.51;2368.99;100533.00;0.34;174.49;;;;;26.40;1.80;;;;;;2278481;61;1407;-87
2023/08/23 00:55:14;677420.00;2.26;1168.10;52808.00;0.18;92.04;;;;;26.40;2.50;;;;;;2276991;61;1728;-88
2023/08/23 00:57:41;422825.00;1.41;729.05;59076.00;0.20;102.88;;;;;26.40;1.70;;;;;;2276880;61;1250;-90
2023/08/23 01:00:11;433513.00;1.45;747.43;68008.00;0.23;118.32;;;;;26.50;2.10;;;;;;2276987;61;2001;-88
2023/08/23 01:02:38;498989.00;1.66;860.08;87864.00;0.29;152.62;;;;;26.60;1.60;;;;;;2293363;40;3634;-89
2023/08/23 01:25:10;1314979.00;4.38;2299.54;90857.00;0.30;157.79;;;;;25.70;5.00;;;;;;2278722;61;1418;-89
2023/08/23 01:32:50;1259415.00;4.20;2198.02;93477.00;0.31;162.31;;;;;25.60;7.60;;;;;;2126040;59;1846;-88
2023/08/23 01:37:55;1056165.00;3.52;1832.21;64409.00;0.21;112.10;;;;;25.60;7.00;;;;;;2270512;61;1367;-89
2023/08/23 01:40:25;539477.00;1.80;929.82;60317.00;0.20;105.02;;;;;25.60;7.00;;;;;;2268755;61;1923;-87
2023/08/23 01:42:53;948127.00;3.16;1640.81;60672.00;0.20;105.64;;;;;25.60;7.60;;;;;;2291904;40;3597;-87
2023/08/23 01:50:20;1292217.00;4.31;2257.87;82680.00;0.28;143.67;;;;;25.50;7.40;;;;;;2277999;55;3704;-87
2023/08/23 01:52:47;936112.00;3.12;1619.64;0.00;0.00;0.62;;;;;25.50;7.30;;;;;;2276472;61;1691;-88
2023/08/23 01:55:17;602254.00;2.01;1038.11;47298.00;0.16;82.51;;;;;25.40;6.20;;;;;;2276857;61;1775;-89
2023/08/23 01:57:46;446449.00;1.49;769.67;41902.00;0.14;73.18;;;;;25.40;5.80;;;;;;2290333;55;3747;-91
2023/08/23 02:00:14;284431.00;0.95;491.16;8840.00;0.03;15.94;;;;;25.50;6.60;;;;;;2348087;56;3981;-88
2023/08/23 02:02:41;585017.00;1.95;1008.36;31895.00;0.11;55.86;;;;;25.30;6.00;;;;;;2276594;61;1371;-87
2023/08/23 02:05:09;516759.00;1.72;890.68;0.00;0.00;0.62;;;;;25.10;7.60;;;;;;2284260;40;3647;-87
2023/08/23 02:07:36;327632.00;1.09;565.42;35985.00;0.12;62.94;;;;;25.20;7.40;;;;;;2281977;55;3772;-87
2023/08/23 02:10:04;719935.00;2.40;1241.83;0.00;0.00;0.62;;;;;25.30;7.40;;;;;;2276598;61;1260;-87
2023/08/23 02:12:31;366211.00;1.22;631.72;34686.00;0.12;60.69;;;;;25.10;7.60;;;;;;2276608;61;2088;-87
2023/08/23 02:15:00;393042.00;1.31;677.84;42942.00;0.14;74.98;;;;;25.20;7.70;;;;;;2276656;61;1751;-86
2023/08/23 02:19:56;1106196.00;3.69;1921.51;55126.00;0.18;96.05;;;;;25.00;8.10;;;;;;2278261;61;1981;-89
2023/08/23 02:22:23;254599.00;0.85;439.86;0.00;0.00;0.62;;;;;25.10;7.90;;;;;;2276827;61;1148;-88
2023/08/23 02:24:51;428684.00;1.43;739.12;70582.00;0.24;122.77;;;;;25.00;8.30;;;;;;2276706;61;1391;-87
2023/08/23 02:27:18;365835.00;1.22;631.08;0.00;0.00;0.62;;;;;24.80;8.30;;;;;;2276657;61;1698;-89
2023/08/23 02:29:45;377126.00;1.26;650.49;37638.00;0.13;65.80;;;;;25.00;8.00;;;;;;2276776;61;1012;-87
2023/08/23 02:37:14;1202035.00;4.01;2093.90;0.00;0.00;0.62;;;;;25.10;7.40;;;;;;2278443;61;1243;-91
2023/08/23 02:39:41;488910.00;1.63;842.73;86864.00;0.29;150.89;;;;;25.00;7.60;;;;;;2276712;61;1998;-88
2023/08/23 02:42:09;188730.00;0.63;326.52;0.00;0.00;0.62;;;;;25.20;7.10;;;;;;2276558;61;1668;-89
2023/08/23 02:47:05;649232.00;2.16;1119.31;0.00;0.00;0.62;;;;;25.30;6.80;;;;;;2280426;55;3689;-89
2023/08/23 02:49:32;225402.00;0.75;389.64;14037.00;0.05;24.94;;;;;25.20;6.90;;;;;;2276477;61;1619;-88
2023/08/23 02:51:59;374369.00;1.25;645.75;27578.00;0.09;48.39;;;;;25.00;7.40;;;;;;2276753;61;1017;-88
2023/08/23 02:56:59;907699.00;3.03;1569.65;0.00;0.00;0.62;;;;;25.10;9.00;;;;;;2282378;61;1414;-90
2023/08/23 03:02:00;1128997.00;3.76;1962.36;0.00;0.00;0.62;;;;;25.20;6.90;;;;;;2278725;61;1430;-88
2023/08/23 03:06:55;975294.00;3.25;1688.76;0.00;0.00;0.62;;;;;25.10;7.10;;;;;;2279527;61;1292;-88
2023/08/23 03:09:23;273169.00;0.91;471.79;13833.00;0.05;24.59;;;;;24.90;7.20;;;;;;2276985;61;1654;-88
2023/08/23 03:14:21;903323.00;3.01;1561.96;0.00;0.00;0.62;;;;;24.80;6.90;;;;;;2278235;61;1452;-88
2023/08/23 03:16:48;253061.00;0.84;437.22;0.00;0.00;0.62;;;;;24.80;6.90;;;;;;2277023;61;1592;-88
2023/08/23 03:19:16;268366.00;0.89;463.53;48314.00;0.16;84.27;;;;;24.80;7.00;;;;;;2276848;61;2013;-88
2023/08/23 03:21:45;470978.00;1.57;811.87;113862.00;0.38;197.49;;;;;24.80;7.80;;;;;;2276854;61;1618;-87
2023/08/23 03:24:12;242896.00;0.81;419.73;60246.00;0.20;104.90;;;;;24.70;7.40;;;;;;2277027;61;1572;-87
2023/08/23 03:29:09;924788.00;3.08;1599.70;0.00;0.00;0.62;;;;;24.70;7.70;;;;;;2278184;61;1415;-89
2023/08/23 03:31:38;362394.00;1.21;625.16;0.00;0.00;0.62;;;;;24.70;7.40;;;;;;2276964;61;1037;-88
2023/08/23 03:36:34;650205.00;2.17;1120.99;0.00;0.00;0.62;;;;;24.80;7.80;;;;;;2282972;61;1378;-88
2023/08/23 03:39:02;324970.00;1.08;560.84;0.00;0.00;0.62;;;;;24.50;8.10;;;;;;2284090;56;3826;-88
2023/08/23 03:43:59;948105.00;3.16;1640.77;0.00;0.00;0.62;;;;;24.30;9.00;;;;;;1593923;55;3874;-88
2023/08/23 03:46:27;202561.00;0.68;350.33;0.00;0.00;0.62;;;;;24.30;9.20;;;;;;2272858;61;1589;-87
2023/08/23 03:51:27;681124.00;2.27;1174.52;0.00;0.00;0.62;;;;;24.70;9.00;;;;;;2278307;61;1410;-88
2023/08/23 03:53:54;211474.00;0.70;365.67;21848.00;0.07;38.47;;;;;24.60;7.30;;;;;;2281777;40;3631;-88
2023/08/23 03:56:22;270205.00;0.90;466.70;839.00;0.00;2.07;;;;;24.30;9.20;;;;;;2276843;61;1463;-88
2023/08/23 03:58:50;326996.00;1.09;564.32;37836.00;0.13;66.14;;;;;24.30;9.00;;;;;;2276690;61;1915;-88
2023/08/23 04:01:18;22214.00;0.07;39.10;0.00;0.00;0.62;;;;;24.40;8.80;;;;;;2276898;61;1687;-88
2023/08/23 04:03:45;187254.00;0.62;323.98;66677.00;0.22;116.02;;;;;24.50;8.60;;;;;;2276788;61;1269;-88
2023/08/23 04:06:17;254439.00;0.85;439.59;0.00;0.00;0.62;;;;;24.40;7.70;;;;;;2276828;61;1608;-88
2023/08/23 04:08:47;160094.00;0.53;277.20;13266.00;0.04;23.61;;;;;24.30;8.90;;;;;;2276829;61;1126;-87
2023/08/23 04:11:22;285293.00;0.95;492.64;28945.00;0.10;50.76;;;;;24.30;8.30;;;;;;2276744;61;1834;-88
2023/08/23 04:13:49;176659.00;0.59;305.74;0.00;0.00;0.62;;;;;24.30;8.60;;;;;;2276841;61;1398;-88
2023/08/23 04:16:16;168164.00;0.56;291.10;0.00;0.00;0.62;;;;;24.30;8.00;;;;;;2276695;61;1735;-88
2023/08/23 04:18:46;230524.00;0.77;398.45;0.00;0.00;0.62;;;;;24.10;8.00;;;;;;2276803;61;1744;-88
2023/08/23 04:21:14;391003.00;1.30;674.34;2802.00;0.01;5.48;;;;;24.00;8.90;;;;;;2287409;40;3605;-90
2023/08/23 04:23:42;171172.00;0.57;296.29;0.00;0.00;0.62;;;;;23.80;8.90;;;;;;2277579;61;1447;-88
2023/08/23 04:26:11;219601.00;0.73;379.66;0.00;0.00;0.62;;;;;24.00;9.40;;;;;;2277515;61;1580;-89
2023/08/23 04:28:39;252602.00;0.84;436.43;0.00;0.00;0.62;;;;;24.10;9.20;;;;;;2288845;55;3814;-89
2023/08/23 04:31:06;243290.00;0.81;420.41;39931.00;0.13;69.77;;;;;24.10;9.10;;;;;;2277270;61;1291;-89
2023/08/23 04:33:35;405462.00;1.35;699.20;56714.00;0.19;98.80;;;;;24.20;9.20;;;;;;2277413;61;1600;-88
2023/08/23 04:41:06;1150169.00;3.83;2000.38;0.00;0.00;0.62;;;;;24.30;8.10;;;;;;2279245;61;1911;-88
2023/08/23 04:43:37;245404.00;0.82;424.05;0.00;0.00;0.62;;;;;24.10;8.00;;;;;;2277314;61;1633;-87
2023/08/23 04:46:07;552176.00;1.84;951.71;88991.00;0.30;154.57;;;;;24.00;9.00;;;;;;2277395;61;1722;-88
2023/08/23 04:48:34;348211.00;1.16;600.79;221.00;0.00;1.00;;;;;24.00;8.40;;;;;;2277176;61;1609;-89
2023/08/23 04:51:02;256079.00;0.85;442.41;0.00;0.00;0.62;;;;;24.20;8.20;;;;;;2277411;61;1666;-87
2023/08/23 04:53:29;209855.00;0.70;362.89;17416.00;0.06;30.80;;;;;24.10;8.30;;;;;;2277346;61;1588;-87
2023/08/23 04:55:58;330693.00;1.10;570.68;41507.00;0.14;72.50;;;;;24.10;8.20;;;;;;2277486;61;1017;-88
2023/08/23 04:58:29;242263.00;0.81;418.64;0.00;0.00;0.62;;;;;23.90;9.00;;;;;;2277353;61;1614;-87
2023/08/23 05:01:03;70916.00;0.24;123.34;0.00;0.00;0.62;;;;;23.90;9.00;;;;;;2277359;61;2005;-88
2023/08/23 05:03:31;59813.00;0.20;104.15;0.00;0.00;0.62;;;;;24.20;8.80;;;;;;2277407;61;1830;-89
2023/08/23 05:13:31;552680.00;1.84;952.58;122418.00;0.41;212.25;;;;;24.70;7.50;;;;;;2414214;40;2124;-87
2023/08/23 05:16:04;435711.00;1.45;751.21;135363.00;0.45;234.58;;;;;24.70;7.20;;;;;;2277237;61;1622;-92
2023/08/23 05:18:34;545408.00;1.82;940.04;69706.00;0.23;121.25;;;;;24.70;7.20;;;;;;2277229;61;1113;-88
2023/08/23 05:23:37;415392.00;1.38;716.27;60374.00;0.20;105.12;;;;;24.80;6.90;;;;;;2397790;40;1834;-89
2023/08/23 05:44:15;131141.00;0.44;227.30;0.00;0.00;0.62;;;;;28.30;2.40;;;;;;2042564;40;2528;-89
2023/08/23 05:46:45;332266.00;1.11;573.38;36361.00;0.12;63.59;;;;;29.40;1.00;;;;;;2277237;61;1583;-87
2023/08/23 05:49:16;167882.00;0.56;290.62;0.00;0.00;0.62;;;;;30.10;1.00;;;;;;2277183;61;1432;-89
2023/08/23 05:54:18;1291654.00;4.31;2256.84;0.00;0.00;0.62;;;;;29.90;1.00;;;;;;2279125;61;1308;-88
2023/08/23 05:56:46;196371.00;0.65;339.68;0.00;0.00;0.62;;;;;29.40;1.00;;;;;;2396842;40;3813;-87
2023/08/23 06:09:33;940179.00;3.13;1626.80;0.00;0.00;0.62;;;;;30.80;1.00;;;;;;2278868;61;1427;-89
2023/08/23 06:12:01;277092.00;0.92;478.54;0.00;0.00;0.62;;;;;31.60;1.00;;;;;;2297468;40;3580;-87
2023/08/23 06:16:59;1064852.00;3.55;1847.68;0.00;0.00;0.62;;;;;33.40;1.00;;;;;;2278677;61;1419;-86
2023/08/23 06:19:26;207438.00;0.69;358.73;0.00;0.00;0.62;;;;;33.30;1.00;;;;;;2277119;61;1992;-86
2023/08/23 06:21:53;374319.00;1.25;645.66;22060.00;0.07;38.84;;;;;33.70;1.00;;;;;;2277068;61;1099;-87
2023/08/23 06:24:20;207946.00;0.69;359.60;0.00;0.00;0.62;;;;;34.20;1.00;;;;;;2276997;61;1401;-86
2023/08/23 06:29:18;1178791.00;3.93;2051.92;0.00;0.00;0.62;;;;;34.00;1.00;;;;;;2278423;61;1411;-88
2023/08/23 06:34:20;218128.00;0.73;377.12;0.00;0.00;0.62;;;;;34.70;1.00;;;;;;2279977;56;1704;-89
2023/08/23 06:36:47;247667.00;0.83;427.94;0.00;0.00;0.62;;;;;35.70;1.00;;;;;;2276906;61;1575;-87
2023/08/23 06:39:14;285143.00;0.95;492.38;120759.00;0.40;209.39;;;;;35.40;1.00;;;;;;2276927;61;1547;-86
2023/08/23 06:41:41;144336.00;0.48;250.05;0.00;0.00;0.62;;;;;35.80;1.00;;;;;;2335918;39;3454;-86
2023/08/23 06:44:08;199061.00;0.66;344.31;0.00;0.00;0.62;;;;;34.90;1.00;;;;;;2286921;40;3610;-87
2023/08/23 06:46:37;196910.00;0.66;340.60;60611.00;0.20;105.53;;;;;34.20;1.00;;;;;;2277203;61;1693;-86
2023/08/23 06:49:04;126261.00;0.42;218.88;0.00;0.00;0.62;;;;;34.50;1.00;;;;;;2276836;61;1608;-86
2023/08/23 06:51:31;149681.00;0.50;259.26;0.00;0.00;0.62;;;;;33.90;1.00;;;;;;2277019;61;1203;-87
2023/08/23 06:53:58;109351.00;0.36;189.71;0.00;0.00;0.62;;;;;33.30;1.00;;;;;;2276991;61;1384;-86
2023/08/23 06:56:26;262656.00;0.88;453.72;59215.00;0.20;103.12;;;;;32.30;1.00;;;;;;2276918;61;1034;-85
2023/08/23 06:58:56;90046.00;0.30;156.39;0.00;0.00;0.62;;;;;31.70;1.00;;;;;;2277108;61;1125;-87
2023/08/23 07:01:23;133387.00;0.44;231.17;0.00;0.00;0.62;;;;;31.00;1.00;;;;;;2277098;61;2013;-87
2023/08/23 07:03:52;163833.00;0.55;283.64;0.00;0.00;0.62;;;;;31.00;1.00;;;;;;2276952;61;1374;-87
2023/08/23 07:06:19;223106.00;0.74;385.69;0.00;0.00;0.62;;;;;31.20;1.00;;;;;;2277125;61;1094;-86
2023/08/23 07:08:46;80218.00;0.27;139.41;0.00;0.00;0.62;;;;;31.90;1.00;;;;;;2276969;61;1168;-85
2023/08/23 07:11:13;87570.00;0.29;152.11;0.00;0.00;0.62;;;;;31.70;1.00;;;;;;2277114;61;1736;-88
2023/08/23 07:13:40;146251.00;0.49;253.35;0.00;0.00;0.62;;;;;31.40;1.00;;;;;;2277097;61;1373;-88
2023/08/23 07:16:08;161785.00;0.54;280.11;0.00;0.00;0.62;;;;;31.70;1.00;;;;;;2277160;61;1110;-87
2023/08/23 07:18:35;99905.00;0.33;173.41;0.00;0.00;0.62;;;;;32.30;1.00;;;;;;2277047;61;1075;-87
2023/08/23 07:21:04;466000.00;1.55;803.31;53133.00;0.18;92.60;;;;;31.40;1.00;;;;;;2277002;61;1912;-87
2023/08/23 07:23:31;424767.00;1.42;732.39;42195.00;0.14;73.69;;;;;31.20;1.00;;;;;;2277014;61;1300;-86
2023/08/23 07:28:28;834523.00;2.78;1441.40;0.00;0.00;0.62;;;;;31.90;1.00;;;;;;2278488;61;1391;-87
2023/08/23 07:31:01;167840.00;0.56;290.55;0.00;0.00;0.62;;;;;31.50;1.00;;;;;;2277005;61;1695;-89
2023/08/23 07:33:31;235753.00;0.79;407.45;61678.00;0.21;107.38;;;;;31.20;1.00;;;;;;2277036;61;1497;-88
2023/08/23 07:36:00;409245.00;1.36;705.70;62657.00;0.21;109.07;;;;;31.50;1.00;;;;;;2276958;61;1615;-89
2023/08/23 07:38:31;491231.00;1.64;846.73;61304.00;0.20;106.73;;;;;32.10;1.00;;;;;;2277022;61;1732;-88
2023/08/23 07:40:59;513167.00;1.71;884.50;62194.00;0.21;108.27;;;;;33.10;1.00;;;;;;2277013;61;2014;-89
2023/08/23 07:43:27;300700.00;1.00;519.12;56897.00;0.19;99.11;;;;;34.70;1.00;;;;;;2277033;61;1088;-89
2023/08/23 07:45:55;358389.00;1.19;618.28;61225.00;0.20;106.59;;;;;35.40;1.00;;;;;;2276949;61;1565;-87
2023/08/23 07:48:23;531569.00;1.77;916.20;95367.00;0.32;165.57;;;;;34.80;1.00;;;;;;2276969;61;1683;-87
2023/08/23 07:50:51;403116.00;1.34;695.16;77788.00;0.26;135.22;;;;;34.50;1.00;;;;;;2276905;61;1541;-88
2023/08/23 07:53:19;348806.00;1.16;601.81;59693.00;0.20;103.95;;;;;34.60;1.00;;;;;;2276703;61;1397;-87
2023/08/23 07:55:47;490223.00;1.63;844.99;66264.00;0.22;115.30;;;;;34.90;1.00;;;;;;2276963;61;1748;-88
2023/08/23 07:58:15;422128.00;1.41;727.85;59496.00;0.20;103.61;;;;;35.10;1.00;;;;;;2276984;61;1598;-88
2023/08/23 08:00:43;628511.00;2.10;1083.48;124705.00;0.42;216.20;;;;;36.00;1.00;;;;;;2276937;61;2003;-87
2023/08/23 08:03:11;366592.00;1.22;632.38;81105.00;0.27;140.95;;;;;35.90;1.00;;;;;;2276904;61;1033;-87
2023/08/23 08:05:40;509773.00;1.70;878.65;83468.00;0.28;145.03;;;;;36.10;1.00;;;;;;2276898;61;1667;-87
2023/08/23 08:08:10;514615.00;1.72;886.99;51221.00;0.17;89.30;;;;;36.10;1.00;;;;;;2276834;61;1430;-87
2023/08/23 08:10:38;478861.00;1.60;825.44;57414.00;0.19;100.01;;;;;35.80;1.00;;;;;;2276937;61;1601;-86
2023/08/23 08:13:07;917359.00;3.06;1586.63;129610.00;0.43;224.66;;;;;35.90;1.00;;;;;;2276885;61;1580;-88
2023/08/23 08:15:34;402505.00;1.34;694.11;63316.00;0.21;110.21;;;;;36.30;1.00;;;;;;2276817;61;1575;-89
2023/08/23 08:18:02;417367.00;1.39;719.66;52029.00;0.17;90.70;;;;;35.50;1.00;;;;;;2276872;61;1599;-87
2023/08/23 08:20:29;244621.00;0.82;422.70;61974.00;0.21;107.89;;;;;35.60;1.00;;;;;;2276867;61;2032;-88
2023/08/23 08:22:56;512659.00;1.71;883.62;53997.00;0.18;94.10;;;;;35.60;1.00;;;;;;2276948;61;1079;-87
2023/08/23 08:25:23;636360.00;2.12;1097.04;118949.00;0.40;206.27;;;;;35.50;1.00;;;;;;2276946;61;1295;-88
2023/08/23 08:27:55;492458.00;1.64;848.84;65282.00;0.22;113.61;;;;;35.80;1.00;;;;;;2276840;61;1050;-87
2023/08/23 08:30:23;308380.00;1.03;532.32;54686.00;0.18;95.29;;;;;35.00;1.00;;;;;;2276894;61;1014;-87
2023/08/23 08:32:51;660447.00;2.20;1138.71;61915.00;0.21;107.79;;;;;35.10;1.00;;;;;;2276742;61;1742;-89
2023/08/23 08:35:19;776419.00;2.59;1340.03;160462.00;0.53;277.84;;;;;34.70;1.00;;;;;;2276716;61;1705;-87
2023/08/23 08:37:46;391084.00;1.30;674.48;52323.00;0.17;91.20;;;;;35.10;1.00;;;;;;2276851;61;1045;-87
2023/08/23 08:40:13;874419.00;2.91;1511.23;69770.00;0.23;121.36;;;;;34.70;1.00;;;;;;2276555;61;1998;-87
2023/08/23 08:42:40;959428.00;3.20;1660.74;208442.00;0.69;360.45;;;;;34.20;1.00;;;;;;2276650;61;1257;-89
2023/08/23 08:45:08;678527.00;2.26;1170.02;58425.00;0.19;101.75;;;;;34.50;1.00;;;;;;2276469;61;1296;-89
2023/08/23 08:50:05;1397321.00;4.66;2451.36;104846.00;0.35;181.94;;;;;35.90;1.00;;;;;;2278595;61;1395;-87
2023/08/23 08:52:32;963440.00;3.21;1667.82;155833.00;0.52;269.86;;;;;35.80;1.00;;;;;;2297930;55;3751;-87
2023/08/23 08:55:01;667840.00;2.23;1151.51;100450.00;0.33;174.35;;;;;35.50;1.00;;;;;;2276719;61;2223;-87
2023/08/23 08:57:30;1025568.00;3.42;1777.81;132262.00;0.44;229.23;;;;;35.10;1.00;;;;;;2276640;61;1131;-87
2023/08/23 08:59:59;945868.00;3.15;1636.83;57197.00;0.19;99.63;;;;;34.90;1.00;;;;;;2276822;61;1322;-88
2023/08/23 09:02:28;892679.00;2.98;1543.27;116684.00;0.39;202.36;;;;;35.10;1.00;;;;;;2276702;61;1999;-87
2023/08/23 09:04:56;1032232.00;3.44;1789.64;97971.00;0.33;170.07;;;;;35.30;1.00;;;;;;2276697;61;1692;-88
2023/08/23 09:07:24;853507.00;2.85;1474.61;89265.00;0.30;155.04;;;;;34.80;1.00;;;;;;2277425;61;2034;-88
2023/08/23 09:09:52;864502.00;2.88;1493.86;51771.00;0.17;90.25;;;;;34.80;1.00;;;;;;2277397;61;1126;-88
2023/08/23 09:12:20;1169522.00;3.90;2035.21;203376.00;0.68;351.73;;;;;35.00;1.00;;;;;;2277181;61;1165;-88
2023/08/23 09:14:50;941829.00;3.14;1629.71;84856.00;0.28;147.42;;;;;35.40;1.00;;;;;;2277370;61;1577;-87
2023/08/23 09:17:21;724706.00;2.42;1250.11;69487.00;0.23;120.87;;;;;35.30;1.00;;;;;;2277296;61;1057;-88
2023/08/23 09:19:48;609905.00;2.03;1051.33;14035.00;0.05;24.94;;;;;35.10;1.00;;;;;;2277347;61;1061;-88
2023/08/23 09:22:20;749361.00;2.50;1292.95;27445.00;0.09;48.16;;;;;34.90;1.00;;;;;;2277290;61;2006;-85
2023/08/23 09:24:48;633917.00;2.11;1092.82;2877.00;0.01;5.61;;;;;34.60;1.00;;;;;;2277479;61;1464;-87
2023/08/23 09:27:15;199685.00;0.67;345.38;0.00;0.00;0.62;;;;;34.70;1.00;;;;;;2277470;61;1117;-86
2023/08/23 09:29:43;241079.00;0.80;416.61;0.00;0.00;0.62;;;;;34.60;1.00;;;;;;2277478;61;1183;-88
2023/08/23 09:32:10;344855.00;1.15;595.02;56531.00;0.19;98.48;;;;;34.80;1.00;;;;;;2277426;61;1134;-86
2023/08/23 09:34:37;105039.00;0.35;182.27;0.00;0.00;0.62;;;;;34.50;1.00;;;;;;2277403;61;1293;-87
2023/08/23 09:37:07;292293.00;0.97;504.67;0.00;0.00;0.62;;;;;34.40;1.00;;;;;;2277387;61;984;-87
2023/08/23 09:39:34;159993.00;0.53;277.03;0.00;0.00;0.62;;;;;34.20;1.00;;;;;;2277420;61;1067;-87
2023/08/23 09:42:05;869114.00;2.90;1501.94;144709.00;0.48;250.69;;;;;34.20;1.00;;;;;;2277397;61;1999;-86
2023/08/23 09:44:37;630380.00;2.10;1086.71;130179.00;0.43;225.64;;;;;34.10;1.00;;;;;;2277347;61;1499;-86
2023/08/23 09:47:07;439775.00;1.47;758.20;0.00;0.00;0.62;;;;;34.50;1.00;;;;;;2277385;61;1190;-86
2023/08/23 09:49:35;641748.00;2.14;1106.36;30046.00;0.10;52.66;;;;;34.50;1.00;;;;;;2277376;61;1126;-85
2023/08/23 09:52:03;235686.00;0.79;407.33;0.00;0.00;0.62;;;;;34.10;1.00;;;;;;2277289;61;1164;-86
2023/08/23 09:54:37;368914.00;1.23;636.37;0.00;0.00;0.62;;;;;34.10;1.00;;;;;;2277266;61;1709;-87
2023/08/23 09:57:06;327310.00;1.09;564.86;0.00;0.00;0.62;;;;;34.10;1.00;;;;;;2277309;61;1111;-87
2023/08/23 09:59:34;352427.00;1.17;608.03;40320.00;0.13;70.44;;;;;34.10;1.00;;;;;;2277320;61;1091;-87
2023/08/23 10:02:06;323665.00;1.08;558.60;4500.00;0.01;8.42;;;;;33.60;1.00;;;;;;2277269;61;1915;-86
2023/08/23 10:04:34;761802.00;2.54;1314.59;45156.00;0.15;78.81;;;;;33.50;1.00;;;;;;2277304;61;1423;-85
2023/08/23 10:07:01;959789.00;3.20;1661.38;157970.00;0.53;273.54;;;;;33.40;1.00;;;;;;2277342;61;1080;-86
2023/08/23 10:09:28;798318.00;2.66;1378.19;101098.00;0.34;175.47;;;;;33.40;1.00;;;;;;2277303;61;771;-85
2023/08/23 10:11:55;547516.00;1.83;943.68;35275.00;0.12;61.71;;;;;33.00;1.00;;;;;;2277310;61;1131;-86
2023/08/23 10:14:25;625782.00;2.09;1078.76;40584.00;0.14;70.90;;;;;32.20;1.00;;;;;;2277231;61;1418;-86
2023/08/23 10:16:53;534654.00;1.78;921.51;8950.00;0.03;16.13;;;;;32.10;1.00;;;;;;2277271;61;1082;-85
2023/08/23 10:19:21;537326.00;1.79;926.12;60621.00;0.20;105.55;;;;;32.20;1.00;;;;;;2277292;61;1071;-86
2023/08/23 10:21:47;732257.00;2.44;1263.22;157131.00;0.52;272.10;;;;;32.80;1.00;;;;;;2277256;61;1915;-87
2023/08/23 10:24:15;710902.00;2.37;1226.15;103111.00;0.34;178.94;;;;;33.20;1.00;;;;;;2277223;61;1287;-88
2023/08/23 10:26:46;543176.00;1.81;936.20;15227.00;0.05;27.00;;;;;33.70;1.00;;;;;;2277286;61;1076;-86
2023/08/23 10:29:13;683785.00;2.28;1179.13;97665.00;0.33;169.54;;;;;32.90;1.00;;;;;;2277289;61;1106;-86
2023/08/23 10:31:54;1095902.00;3.65;1903.10;115722.00;0.39;200.70;;;;;32.70;1.00;;;;;;2277314;61;1124;-87
2023/08/23 10:34:24;615362.00;2.05;1060.75;45828.00;0.15;79.97;;;;;33.10;1.00;;;;;;2277238;61;1418;-88
2023/08/23 10:36:52;607578.00;2.03;1047.31;24570.00;0.08;43.18;;;;;33.50;1.00;;;;;;2277258;61;1098;-87
2023/08/23 10:39:22;693314.00;2.31;1195.65;94000.00;0.31;163.21;;;;;33.70;1.00;;;;;;2277254;61;1052;-88
2023/08/23 10:41:51;855096.00;2.85;1477.39;177624.00;0.59;307.40;;;;;33.90;1.00;;;;;;2277219;61;2008;-86
2023/08/23 10:44:18;781818.00;2.61;1349.43;116465.00;0.39;201.98;;;;;33.80;1.00;;;;;;2277196;61;1327;-87
2023/08/23 10:46:46;792526.00;2.64;1368.09;118006.00;0.39;204.64;;;;;33.20;1.00;;;;;;2277204;61;1092;-87
2023/08/23 10:49:14;655377.00;2.18;1129.94;92637.00;0.31;160.86;;;;;33.30;1.00;;;;;;2276909;61;1049;-86
2023/08/23 10:51:42;555518.00;1.85;957.47;109613.00;0.37;190.16;;;;;33.60;1.00;;;;;;2277118;61;1526;-87
2023/08/23 10:54:11;548643.00;1.83;945.62;59682.00;0.20;103.93;;;;;33.70;1.00;;;;;;2277101;61;2074;-86
2023/08/23 10:56:38;739350.00;2.46;1275.55;180885.00;0.60;313.01;;;;;33.50;1.00;;;;;;2277171;61;1081;-87
2023/08/23 10:59:07;434142.00;1.45;748.51;65310.00;0.22;113.66;;;;;33.60;1.00;;;;;;2277169;61;1031;-87
2023/08/23 11:01:34;577422.00;1.92;995.25;75682.00;0.25;131.58;;;;;33.80;1.00;;;;;;2277146;61;1913;-87
2023/08/23 11:04:04;994223.00;3.31;1722.24;152521.00;0.51;264.15;;;;;34.20;1.00;;;;;;2277149;61;1375;-87
2023/08/23 11:06:33;783127.00;2.61;1351.71;69006.00;0.23;120.04;;;;;34.50;1.00;;;;;;2277212;61;1094;-86
2023/08/23 11:09:00;701532.00;2.34;1209.90;107845.00;0.36;187.11;;;;;34.20;1.00;;;;;;2277113;61;1073;-87
2023/08/23 11:11:29;655312.00;2.18;1129.83;107313.00;0.36;186.19;;;;;33.90;1.00;;;;;;2277103;61;1103;-87
2023/08/23 11:13:56;1091182.00;3.64;1894.66;138402.00;0.46;239.82;;;;;34.10;1.00;;;;;;2277066;61;1343;-87
2023/08/23 11:16:24;581259.00;1.94;1001.87;57989.00;0.19;101.00;;;;;34.10;1.00;;;;;;2277074;61;1117;-87
2023/08/23 11:18:51;670443.00;2.23;1156.02;90803.00;0.30;157.69;;;;;33.90;1.00;;;;;;2277055;61;1061;-87
2023/08/23 11:21:19;606849.00;2.02;1046.05;89593.00;0.30;155.60;;;;;33.70;1.00;;;;;;2277086;61;1998;-88
2023/08/23 11:23:47;776507.00;2.59;1340.18;134180.00;0.45;232.54;;;;;33.10;1.00;;;;;;2277135;61;1303;-87
2023/08/23 11:26:14;878207.00;2.93;1517.88;74204.00;0.25;129.02;;;;;33.40;1.00;;;;;;2277173;61;1207;-88
2023/08/23 11:28:41;535388.00;1.78;922.78;48762.00;0.16;85.05;;;;;33.90;1.00;;;;;;2276886;61;1078;-87
2023/08/23 11:31:09;650636.00;2.17;1121.74;61816.00;0.21;107.62;;;;;33.90;1.00;;;;;;2276999;61;1071;-87
2023/08/23 11:33:37;750506.00;2.50;1294.94;89442.00;0.30;155.34;;;;;34.20;1.00;;;;;;2277046;61;1276;-87
2023/08/23 11:36:04;517332.00;1.72;891.67;95168.00;0.32;165.23;;;;;34.50;1.00;;;;;;2277013;61;2060;-86
2023/08/23 11:38:33;791227.00;2.64;1365.83;63145.00;0.21;109.91;;;;;34.30;1.00;;;;;;2276955;61;1045;-87
2023/08/23 11:41:00;378541.00;1.26;652.92;60732.00;0.20;105.74;;;;;34.30;1.00;;;;;;2276978;61;2004;-86
2023/08/23 11:43:28;171455.00;0.57;296.77;56220.00;0.19;97.94;;;;;34.50;1.00;;;;;;2276998;61;1090;-85
2023/08/23 11:45:55;279033.00;0.93;481.87;58351.00;0.19;101.63;;;;;34.80;1.00;;;;;;2277028;61;1119;-87
2023/08/23 11:48:23;166720.00;0.56;288.62;55038.00;0.18;95.90;;;;;34.70;1.00;;;;;;2276914;61;1109;-87
2023/08/23 11:50:51;506720.00;1.69;873.39;148814.00;0.50;257.76;;;;;34.70;1.00;;;;;;2276994;61;1211;-86
2023/08/23 11:53:19;283505.00;0.95;489.56;60406.00;0.20;105.18;;;;;34.80;1.00;;;;;;2276762;61;1308;-87
2023/08/23 11:55:50;497020.00;1.66;856.69;59983.00;0.20;104.45;;;;;35.10;1.00;;;;;;2276959;61;1289;-87
2023/08/23 11:58:17;189663.00;0.63;328.13;59497.00;0.20;103.61;;;;;35.10;1.00;;;;;;2276818;61;2082;-85
2023/08/23 12:00:44;389124.00;1.30;671.11;60724.00;0.20;105.73;;;;;34.50;1.00;;;;;;2276928;61;1044;-87